.
WxDataArchive / Data Records for 2016-01-30
2016-01-29 January 2016 2016-01-31

Data Records for Saturday, 30 January 2016

Time	Temp	Chill	HIndex	Humid	Dewpt	 Wind 	HiWind	WindDir	Rain 	Barom
-----	----	-----	------	-----	-----	------	------	-------	-----	-----
00:00	32.4	32.4	32.4	61	20.5	1	4	90	0.00	29.838 
00:05	32.4	32.4	32.4	61	20.5	1	4	90	0.00	29.838 
00:10	32.4	32.4	32.4	61	20.5	0	4	112	0.00	29.838 
00:15	32.4	32.4	32.4	62	20.9	0	3	112	0.00	29.839 
00:20	32.4	32.4	32.4	62	20.9	1	4	112	0.00	29.839 
00:25	32.2	32.2	32.2	62	20.7	0	3	112	0.00	29.839 
00:30	32.1	32.1	32.1	63	20.9	0	3	112	0.00	29.830 
00:35	31.9	31.9	31.9	63	20.8	1	4	90	0.00	29.830 
00:40	31.9	31.9	31.9	64	21.1	0	1	90	0.00	29.830 
00:45	31.8	31.8	31.8	64	21.0	0	1	90	0.00	29.842 
00:50	31.8	31.8	31.8	64	21.0	0	1	90	0.00	29.842 
00:55	31.6	31.6	31.6	64	20.8	0	2	90	0.00	29.842 
01:00	31.5	31.5	31.5	65	21.1	0	1	90	0.00	29.832 
01:05	31.3	31.3	31.3	65	20.9	0	3	90	0.00	29.832 
01:10	31.3	31.3	31.3	65	20.9	0	2	90	0.00	29.832 
01:15	31.3	31.3	31.3	66	21.3	0	2	90	0.00	29.820 
01:20	31.2	31.2	31.2	66	21.2	0	1	90	0.00	29.820 
01:25	31.2	31.2	31.2	66	21.2	0	1	90	0.00	29.820 
01:30	31.0	31.0	31.0	67	21.3	0	2	90	0.00	29.811 
01:35	30.9	30.9	30.9	67	21.3	0	1	90	0.00	29.811 
01:40	30.9	30.9	30.9	67	21.3	0	1	90	0.00	29.811 
01:45	30.7	30.7	30.7	68	21.4	0	1	90	0.00	29.810 
01:50	30.7	30.7	30.7	68	21.4	0	1	90	0.00	29.810 
01:55	30.7	30.7	30.7	68	21.4	0	2	90	0.00	29.810 
02:00	30.9	30.9	30.9	68	21.6	0	1	90	0.00	29.805 
02:05	30.9	30.9	30.9	68	21.6	0	2	90	0.00	29.805 
02:10	31.0	31.0	31.0	68	21.7	0	2	90	0.00	29.805 
02:15	31.2	31.2	31.2	68	21.9	0	3	90	0.00	29.794 
02:20	31.2	31.2	31.2	67	21.5	0	2	90	0.00	29.794 
02:25	31.3	31.3	31.3	67	21.6	0	1	90	0.00	29.794 
02:30	31.3	31.3	31.3	68	22.0	0	1	90	0.00	29.791 
02:35	31.3	31.3	31.3	68	22.0	0	1	90	0.00	29.791 
02:40	31.3	31.3	31.3	68	22.0	0	1	90	0.00	29.791 
02:45	31.3	31.3	31.3	68	22.0	0	1	90	0.00	29.797 
02:50	31.3	31.3	31.3	68	22.0	0	1	90	0.00	29.797 
02:55	31.2	31.2	31.2	69	22.2	0	0	---	0.00	29.797 
03:00	31.2	31.2	31.2	69	22.2	0	1	90	0.00	29.791 
03:05	31.2	31.2	31.2	69	22.2	0	3	90	0.00	29.791 
03:10	31.2	31.2	31.2	69	22.2	0	1	90	0.00	29.791 
03:15	31.0	31.0	31.0	69	22.0	0	1	90	0.00	29.784 
03:20	30.9	30.9	30.9	70	22.3	0	1	90	0.00	29.784 
03:25	30.9	30.9	30.9	70	22.3	0	1	90	0.00	29.784 
03:30	30.9	30.9	30.9	70	22.3	0	1	90	0.00	29.783 
03:35	30.7	30.7	30.7	71	22.4	0	1	90	0.00	29.783 
03:40	30.7	30.7	30.7	71	22.4	0	0	---	0.00	29.783 
03:45	30.7	30.7	30.7	71	22.4	0	2	90	0.00	29.774 
03:50	30.9	30.9	30.9	72	23.0	0	2	90	0.00	29.774 
03:55	30.9	30.9	30.9	72	23.0	0	1	90	0.00	29.774 
04:00	30.9	30.9	30.9	72	23.0	0	1	90	0.00	29.770 
04:05	30.9	30.9	30.9	73	23.3	0	1	90	0.00	29.770 
04:10	30.9	30.9	30.9	73	23.3	0	1	90	0.00	29.770 
04:15	30.9	30.9	30.9	73	23.3	0	1	90	0.00	29.760 
04:20	31.0	31.0	31.0	73	23.4	0	1	90	0.00	29.760 
04:25	31.2	31.2	31.2	74	23.9	0	2	90	0.00	29.760 
04:30	31.5	31.5	31.5	74	24.2	0	1	90	0.00	29.755 
04:35	31.8	31.8	31.8	74	24.5	0	1	90	0.00	29.755 
04:40	32.1	32.1	32.1	73	24.4	0	2	90	0.00	29.755 
04:45	32.4	32.4	32.4	73	24.7	0	2	90	0.00	29.743 
04:50	32.7	32.7	32.7	73	25.0	0	4	90	0.00	29.743 
04:55	32.9	32.9	32.9	72	24.9	0	1	90	0.00	29.743 
05:00	33.2	33.2	33.2	72	25.2	0	1	90	0.00	29.738 
05:05	33.5	33.5	33.5	72	25.5	0	3	90	0.00	29.738 
05:10	33.7	33.7	33.7	71	25.3	0	1	90	0.00	29.738 
05:15	34.0	34.0	34.0	71	25.6	0	2	90	0.00	29.730 
05:20	34.1	34.1	34.1	70	25.4	0	2	90	0.00	29.730 
05:25	34.3	34.3	34.3	70	25.5	0	3	90	0.00	29.730 
05:30	34.6	34.6	34.6	69	25.5	0	3	315	0.00	29.732 
05:35	34.6	34.6	34.6	69	25.5	0	3	315	0.00	29.732 
05:40	34.7	34.7	34.7	69	25.6	0	1	225	0.00	29.732 
05:45	34.7	34.7	34.7	69	25.6	0	3	90	0.00	29.720 
05:50	34.9	34.9	34.9	69	25.8	0	1	202	0.00	29.720 
05:55	34.9	34.9	34.9	69	25.8	0	3	248	0.00	29.720 
06:00	34.9	34.9	34.9	69	25.8	0	2	248	0.00	29.717 
06:05	34.9	34.9	34.9	69	25.8	0	2	248	0.00	29.717 
06:10	34.9	34.9	34.9	69	25.8	0	2	248	0.00	29.717 
06:15	34.7	34.7	34.7	69	25.6	0	2	248	0.00	29.717 
06:20	34.7	34.7	34.7	70	25.9	0	1	248	0.00	29.717 
06:25	34.7	34.7	34.7	70	25.9	0	1	248	0.00	29.717 
06:30	34.7	34.7	34.7	70	25.9	0	1	248	0.00	29.709 
06:35	34.7	34.7	34.7	70	25.9	0	2	248	0.00	29.709 
06:40	34.9	34.9	34.9	70	26.1	0	1	248	0.00	29.709 
06:45	34.9	34.9	34.9	70	26.1	0	1	248	0.00	29.706 
06:50	35.0	35.0	35.0	70	26.2	0	1	248	0.00	29.706 
06:55	35.2	35.2	35.2	70	26.4	0	1	248	0.00	29.706 
07:00	35.3	35.3	35.3	70	26.5	0	2	248	0.00	29.702 
07:05	35.5	35.5	35.5	69	26.4	0	2	248	0.00	29.702 
07:10	35.6	35.6	35.6	69	26.4	0	1	248	0.00	29.702 
07:15	35.8	35.8	35.8	69	26.6	0	3	248	0.00	29.721 
07:20	35.8	35.8	35.8	69	26.6	0	1	248	0.00	29.721 
07:25	35.3	35.3	35.3	69	26.2	0	1	248	0.00	29.721 
07:30	35.0	35.0	35.0	69	25.9	0	0	---	0.00	29.718 
07:35	34.6	34.6	34.6	70	25.8	0	1	248	0.00	29.718 
07:40	34.1	34.1	34.1	70	25.4	0	0	---	0.00	29.718 
07:45	33.7	33.7	33.7	71	25.3	0	0	---	0.00	29.724 
07:50	33.2	33.2	33.2	72	25.2	0	0	---	0.00	29.724 
07:55	32.8	32.8	32.8	73	25.1	0	0	---	0.00	29.724 
08:00	32.5	32.5	32.5	74	25.2	0	1	248	0.00	29.723 
08:05	32.4	32.4	32.4	75	25.4	0	0	---	0.00	29.723 
08:10	32.4	32.4	32.4	76	25.7	0	1	248	0.00	29.723 
08:15	32.7	32.7	32.7	76	26.0	0	1	248	0.00	29.709 
08:20	32.9	32.9	32.9	76	26.2	0	1	248	0.00	29.709 
08:25	33.1	33.1	33.1	76	26.4	0	1	248	0.00	29.709 
08:30	33.5	33.5	33.5	75	26.4	0	1	248	0.00	29.723 
08:35	34.0	34.0	34.0	75	26.9	0	1	248	0.00	29.723 
08:40	34.6	34.6	34.6	75	27.5	0	1	248	0.00	29.723 
08:45	35.5	35.5	35.5	73	27.7	0	1	248	0.00	29.713 
08:50	36.2	36.2	36.2	72	28.1	0	1	248	0.00	29.713 
08:55	36.9	36.9	36.9	70	28.0	0	1	248	0.00	29.713 
09:00	37.8	37.8	37.8	69	28.6	0	1	248	0.00	29.715 
09:05	38.3	38.3	38.3	67	28.3	0	1	248	0.00	29.715 
09:10	38.8	38.8	38.8	66	28.4	0	2	248	0.00	29.715 
09:15	39.2	39.2	39.2	65	28.4	0	2	248	0.00	29.717 
09:20	39.3	39.3	39.3	65	28.5	0	1	248	0.00	29.717 
09:25	39.5	39.5	39.5	64	28.3	0	1	248	0.00	29.717 
09:30	39.6	39.6	39.6	64	28.4	0	1	248	0.00	29.716 
09:35	39.9	39.9	39.9	64	28.7	0	2	248	0.00	29.716 
09:40	40.5	40.5	40.5	63	28.9	0	3	248	0.00	29.716 
09:45	40.9	40.9	40.9	62	28.9	1	4	248	0.00	29.717 
09:50	41.5	41.5	41.5	61	29.1	1	5	248	0.00	29.717 
09:55	42.1	42.1	42.1	60	29.2	1	3	248	0.00	29.717 
10:00	42.5	42.5	42.5	60	29.6	1	4	248	0.00	29.712 
10:05	42.9	42.9	42.9	59	29.6	1	4	248	0.00	29.712 
10:10	43.3	43.3	43.3	58	29.5	1	5	248	0.00	29.712 
10:15	43.6	43.6	43.6	58	29.8	1	4	248	0.00	29.713 
10:20	43.9	43.9	43.9	57	29.7	2	6	248	0.00	29.713 
10:25	44.2	44.2	44.2	57	29.9	1	4	248	0.00	29.713 
10:30	44.5	44.5	44.5	57	30.2	1	4	248	0.00	29.712 
10:35	44.8	44.8	44.8	57	30.5	1	6	270	0.00	29.712 
10:40	45.2	45.2	45.2	56	30.4	2	9	270	0.00	29.712 
10:45	45.7	45.7	45.7	55	30.5	2	9	248	0.00	29.703 
10:50	46.1	46.1	46.1	54	30.4	2	12	248	0.00	29.703 
10:55	46.2	46.2	46.2	54	30.5	2	6	248	0.00	29.703 
11:00	46.1	46.1	46.1	54	30.4	2	7	248	0.00	29.711 
11:05	46.1	46.1	46.1	55	30.8	1	3	248	0.00	29.711 
11:10	46.2	46.2	46.2	55	30.9	1	2	248	0.00	29.711 
11:15	46.2	46.2	46.2	55	30.9	1	3	248	0.00	29.708 
11:20	46.4	46.4	46.4	55	31.1	1	4	248	0.00	29.708 
11:25	46.5	46.5	46.5	55	31.2	1	6	248	0.00	29.708 
11:30	46.8	46.8	46.8	54	31.0	2	6	248	0.00	29.705 
11:35	47.3	47.3	47.3	55	32.0	1	6	248	0.00	29.705 
11:40	48.0	48.0	48.0	54	32.2	1	6	248	0.00	29.705 
11:45	48.6	48.6	48.6	53	32.3	2	5	248	0.00	29.690 
11:50	48.6	48.6	48.6	53	32.3	1	4	248	0.00	29.690 
11:55	48.5	48.5	48.5	53	32.2	1	4	248	0.00	29.690 
12:00	48.3	48.3	48.3	53	32.0	1	9	248	0.00	29.691 
12:05	48.2	48.2	48.2	53	31.9	2	7	248	0.00	29.691 
12:10	48.0	48.0	48.0	54	32.2	1	5	248	0.00	29.691 
12:15	47.6	47.6	47.6	54	31.8	2	6	248	0.00	29.677 
12:20	47.4	47.4	47.4	55	32.1	1	3	248	0.00	29.677 
12:25	47.3	47.3	47.3	55	32.0	1	4	270	0.00	29.677 
12:30	47.1	47.1	47.1	55	31.8	1	4	270	0.00	29.663 
12:35	47.3	47.3	47.3	56	32.4	1	5	248	0.00	29.663 
12:40	47.1	47.1	47.1	56	32.2	1	10	248	0.00	29.663 
12:45	47.3	47.3	47.3	56	32.4	1	3	248	0.00	29.660 
12:50	47.3	47.3	47.3	56	32.4	1	5	248	0.00	29.660 
12:55	47.4	47.4	47.4	56	32.5	1	3	248	0.00	29.660 
13:00	47.9	47.9	47.9	56	33.0	1	4	248	0.00	29.660 
13:05	48.2	48.2	48.2	55	32.8	1	3	248	0.00	29.660 
13:10	48.5	48.5	48.5	55	33.1	2	5	248	0.00	29.660 
13:15	48.9	48.9	48.9	55	33.5	1	3	248	0.00	29.662 
13:20	49.4	49.4	49.4	54	33.5	1	4	248	0.00	29.662 
13:25	49.8	49.8	49.8	54	33.8	1	4	248	0.00	29.662 
13:30	50.2	50.2	50.2	54	34.2	1	3	248	0.00	29.650 
13:35	50.4	50.4	50.4	53	33.9	1	4	248	0.00	29.650 
13:40	50.4	50.4	50.4	53	33.9	1	5	248	0.00	29.650 
13:45	50.7	50.7	50.7	53	34.2	1	6	270	0.00	29.649 
13:50	51.0	51.0	51.0	52	34.0	2	5	270	0.00	29.649 
13:55	51.3	51.3	51.3	52	34.3	1	5	248	0.00	29.649 
14:00	51.6	51.6	51.6	52	34.6	1	4	292	0.00	29.653 
14:05	51.7	51.7	51.7	52	34.6	1	6	248	0.00	29.653 
14:10	51.7	51.7	51.7	52	34.6	1	6	248	0.00	29.653 
14:15	51.7	51.7	51.7	52	34.6	1	5	248	0.00	29.648 
14:20	52.0	52.0	52.0	52	34.9	1	6	292	0.00	29.648 
14:25	52.3	52.3	52.3	52	35.2	1	4	248	0.00	29.648 
14:30	52.6	52.6	52.6	52	35.5	1	5	248	0.00	29.643 
14:35	52.8	52.8	52.8	51	35.2	1	4	248	0.00	29.643 
14:40	53.1	53.1	53.1	51	35.5	2	4	292	0.00	29.643 
14:45	53.2	53.2	53.2	51	35.5	1	5	270	0.00	29.643 
14:50	53.6	53.6	53.6	51	35.9	1	4	270	0.00	29.643 
14:55	53.6	53.6	53.6	50	35.4	1	5	270	0.00	29.643 
15:00	53.6	53.6	53.6	51	35.9	2	6	270	0.00	29.659 
15:05	53.5	53.5	53.5	51	35.8	1	4	270	0.00	29.659 
15:10	53.3	53.3	53.3	51	35.6	1	4	248	0.00	29.659 
15:15	53.2	53.2	53.2	51	35.5	1	3	248	0.00	29.663 
15:20	53.2	53.2	53.2	52	36.0	1	3	248	0.00	29.663 
15:25	53.1	53.1	53.1	52	35.9	1	3	248	0.00	29.663 
15:30	52.6	52.6	52.6	53	36.0	1	3	248	0.00	29.653 
15:35	52.6	52.6	52.6	53	36.0	1	2	248	0.00	29.653 
15:40	52.6	52.6	52.6	53	36.0	0	3	248	0.00	29.653 
15:45	52.6	52.6	52.6	53	36.0	1	2	248	0.00	29.659 
15:50	52.6	52.6	52.6	53	36.0	0	2	248	0.00	29.659 
15:55	52.5	52.5	52.5	54	36.3	0	1	248	0.00	29.659 
16:00	52.8	52.8	52.8	54	36.6	0	2	248	0.00	29.659 
16:05	53.1	53.1	53.1	53	36.4	0	3	248	0.00	29.659 
16:10	53.1	53.1	53.1	53	36.4	1	2	248	0.00	29.659 
16:15	53.1	53.1	53.1	53	36.4	0	3	248	0.00	29.658 
16:20	53.1	53.1	53.1	53	36.4	0	1	248	0.00	29.658 
16:25	53.1	53.1	53.1	53	36.4	0	2	248	0.00	29.658 
16:30	52.9	52.9	52.9	52	35.8	0	1	248	0.00	29.659 
16:35	52.8	52.8	52.8	53	36.1	0	1	248	0.00	29.659 
16:40	52.6	52.6	52.6	53	36.0	0	2	248	0.00	29.659 
16:45	52.3	52.3	52.3	54	36.2	0	2	248	0.00	29.667 
16:50	52.0	52.0	52.0	54	35.9	0	3	248	0.00	29.667 
16:55	51.9	51.9	51.9	54	35.8	0	2	248	0.00	29.667 
17:00	51.6	51.6	51.6	55	36.0	0	1	248	0.00	29.677 
17:05	51.4	51.4	51.4	55	35.8	0	1	248	0.00	29.677 
17:10	51.1	51.1	51.1	56	36.0	0	1	248	0.00	29.677 
17:15	51.0	51.0	51.0	56	35.9	0	1	248	0.00	29.685 
17:20	50.8	50.8	50.8	57	36.1	0	1	248	0.00	29.685 
17:25	50.5	50.5	50.5	57	35.8	0	1	248	0.00	29.685 
17:30	50.4	50.4	50.4	58	36.2	0	1	248	0.00	29.684 
17:35	50.2	50.2	50.2	58	36.0	0	1	248	0.00	29.684 
17:40	50.1	50.1	50.1	58	35.9	0	0	---	0.00	29.684 
17:45	49.8	49.8	49.8	58	35.6	0	0	---	0.00	29.690 
17:50	49.5	49.5	49.5	59	35.8	0	1	248	0.00	29.690 
17:55	49.2	49.2	49.2	59	35.5	0	0	---	0.00	29.690 
18:00	48.9	48.9	48.9	60	35.6	0	1	248	0.00	29.691 
18:05	48.5	48.5	48.5	60	35.3	0	0	---	0.00	29.691 
18:10	48.0	48.0	48.0	61	35.2	0	0	---	0.00	29.691 
18:15	47.6	47.6	47.6	61	34.8	0	0	---	0.00	29.705 
18:20	47.0	47.0	47.0	62	34.7	0	0	---	0.00	29.705 
18:25	46.4	46.4	46.4	63	34.5	0	0	---	0.00	29.705 
18:30	45.8	45.8	45.8	64	34.3	0	0	---	0.00	29.716 
18:35	45.2	45.2	45.2	64	33.8	0	0	---	0.00	29.716 
18:40	44.6	44.6	44.6	65	33.6	0	0	---	0.00	29.716 
18:45	43.9	43.9	43.9	66	33.3	0	0	---	0.00	29.723 
18:50	43.3	43.3	43.3	67	33.1	0	0	---	0.00	29.723 
18:55	42.9	42.9	42.9	68	33.1	0	0	---	0.00	29.723 
19:00	42.3	42.3	42.3	69	32.9	0	0	---	0.00	29.726 
19:05	41.8	41.8	41.8	71	33.1	0	0	---	0.00	29.726 
19:10	41.3	41.3	41.3	72	33.0	0	0	---	0.00	29.726 
19:15	40.9	40.9	40.9	73	32.9	0	0	---	0.00	29.730 
19:20	40.5	40.5	40.5	73	32.5	0	0	---	0.00	29.730 
19:25	40.1	40.1	40.1	74	32.5	0	0	---	0.00	29.730 
19:30	39.8	39.8	39.8	76	32.9	0	0	---	0.00	29.733 
19:35	39.5	39.5	39.5	77	32.9	0	0	---	0.00	29.733 
19:40	39.2	39.2	39.2	77	32.6	0	0	---	0.00	29.733 
19:45	38.9	38.9	38.9	78	32.6	0	0	---	0.00	29.732 
19:50	38.6	38.6	38.6	79	32.7	0	0	---	0.00	29.732 
19:55	38.3	38.3	38.3	79	32.4	0	0	---	0.00	29.732 
20:00	38.0	38.0	38.0	79	32.1	0	0	---	0.00	29.743 
20:05	37.8	37.8	37.8	80	32.2	0	0	---	0.00	29.743 
20:10	37.5	37.5	37.5	81	32.2	0	0	---	0.00	29.743 
20:15	37.3	37.3	37.3	81	32.0	0	0	---	0.00	29.744 
20:20	37.0	37.0	37.0	81	31.7	0	0	---	0.00	29.744 
20:25	36.9	36.9	36.9	82	31.9	0	0	---	0.00	29.744 
20:30	36.6	36.6	36.6	83	31.9	0	0	---	0.00	29.744 
20:35	36.5	36.5	36.5	83	31.8	0	0	---	0.00	29.744 
20:40	36.2	36.2	36.2	83	31.5	0	0	---	0.00	29.744 
20:45	35.9	35.9	35.9	83	31.2	0	0	---	0.00	29.735 
20:50	35.8	35.8	35.8	84	31.4	0	0	---	0.00	29.735 
20:55	35.8	35.8	35.8	84	31.4	0	0	---	0.00	29.735 
21:00	35.6	35.6	35.6	84	31.3	0	0	---	0.00	29.735 
21:05	35.6	35.6	35.6	85	31.5	0	0	---	0.00	29.735 
21:10	35.6	35.6	35.6	85	31.5	0	0	---	0.00	29.735 
21:15	35.5	35.5	35.5	85	31.4	0	0	---	0.00	29.741 
21:20	35.3	35.3	35.3	85	31.2	0	0	---	0.00	29.741 
21:25	35.3	35.3	35.3	86	31.5	0	0	---	0.00	29.741 
21:30	35.2	35.2	35.2	86	31.4	0	0	---	0.00	29.739 
21:35	35.0	35.0	35.0	86	31.2	0	0	---	0.00	29.739 
21:40	35.0	35.0	35.0	86	31.2	0	0	---	0.00	29.739 
21:45	35.2	35.2	35.2	86	31.4	0	0	---	0.00	29.741 
21:50	35.2	35.2	35.2	87	31.7	0	0	---	0.00	29.741 
21:55	35.2	35.2	35.2	87	31.7	0	0	---	0.00	29.741 
22:00	35.0	35.0	35.0	87	31.5	0	0	---	0.00	29.739 
22:05	35.0	35.0	35.0	87	31.5	0	0	---	0.00	29.739 
22:10	35.0	35.0	35.0	87	31.5	0	0	---	0.00	29.739 
22:15	35.0	35.0	35.0	87	31.5	0	0	---	0.00	29.735 
22:20	35.0	35.0	35.0	88	31.8	0	0	---	0.00	29.735 
22:25	34.9	34.9	34.9	88	31.7	0	0	---	0.00	29.735 
22:30	34.9	34.9	34.9	88	31.7	0	0	---	0.00	29.732 
22:35	34.9	34.9	34.9	88	31.7	0	0	---	0.00	29.732 
22:40	35.0	35.0	35.0	88	31.8	0	0	---	0.00	29.732 
22:45	35.0	35.0	35.0	88	31.8	0	0	---	0.00	29.730 
22:50	35.0	35.0	35.0	88	31.8	0	0	---	0.00	29.730 
22:55	35.0	35.0	35.0	88	31.8	0	0	---	0.00	29.730 
23:00	35.2	35.2	35.2	88	32.0	0	0	---	0.00	29.724 
23:05	35.2	35.2	35.2	88	32.0	0	0	---	0.00	29.724 
23:10	35.2	35.2	35.2	88	32.0	0	0	---	0.00	29.724 
23:15	35.2	35.2	35.2	88	32.0	0	0	---	0.00	29.726 
23:20	35.3	35.3	35.3	89	32.4	0	0	---	0.00	29.726 
23:25	35.5	35.5	35.5	89	32.6	0	0	---	0.00	29.726 
23:30	35.8	35.8	35.8	89	32.9	0	0	---	0.00	29.728 
23:35	36.0	36.0	36.0	89	33.1	0	0	---	0.00	29.728 
23:40	36.3	36.3	36.3	89	33.4	0	0	---	0.00	29.728 
23:45	36.5	36.5	36.5	90	33.9	0	0	---	0.00	29.725 
23:50	36.6	36.6	36.6	89	33.7	0	0	---	0.00	29.725 
23:55	36.8	36.8	36.8	89	33.9	0	0	---	0.00	29.725 

CoCoRaHS
IN-AL-39
A2 Web Hosting
Creative Commons License
GoDaddy
search engine by freefind advanced

loaded 2018-11-13 21:15:22 • last modified 2010-11-18 10:43:29
Privacy PolicyDisclaimer
• wx.awcolley.com is powered by PmWiki v.2002016 •
• all content (unless otherwise noted) © 2018 A W Colley